sensor_id;sensor_type;location;lat;lon;timestamp;P1;durP1;ratioP1;P2;durP2;ratioP2
18520;SDS011;9390;51.244;6.982;2023-03-14T00:00:03;9.55;;;2.33;;
18520;SDS011;9390;51.244;6.982;2023-03-14T00:02:39;6.43;;;1.60;;
18520;SDS011;9390;51.244;6.982;2023-03-14T00:07:42;10.68;;;1.73;;
18520;SDS011;9390;51.244;6.982;2023-03-14T00:10:14;7.82;;;1.90;;
18520;SDS011;9390;51.244;6.982;2023-03-14T00:12:46;4.90;;;1.90;;
18520;SDS011;9390;51.244;6.982;2023-03-14T00:15:17;9.43;;;2.08;;
18520;SDS011;9390;51.244;6.982;2023-03-14T00:17:50;6.78;;;1.95;;
18520;SDS011;9390;51.244;6.982;2023-03-14T00:20:21;4.93;;;1.75;;
18520;SDS011;9390;51.244;6.982;2023-03-14T00:22:52;13.15;;;2.03;;
18520;SDS011;9390;51.244;6.982;2023-03-14T00:25:24;4.93;;;1.90;;
18520;SDS011;9390;51.244;6.982;2023-03-14T00:27:55;6.07;;;2.20;;
18520;SDS011;9390;51.244;6.982;2023-03-14T00:30:27;6.93;;;1.75;;
18520;SDS011;9390;51.244;6.982;2023-03-14T00:32:59;7.75;;;1.98;;
18520;SDS011;9390;51.244;6.982;2023-03-14T00:35:31;9.68;;;2.00;;
18520;SDS011;9390;51.244;6.982;2023-03-14T00:38:02;8.05;;;1.90;;
18520;SDS011;9390;51.244;6.982;2023-03-14T00:40:33;12.05;;;2.15;;
18520;SDS011;9390;51.244;6.982;2023-03-14T00:43:05;8.45;;;1.63;;
18520;SDS011;9390;51.244;6.982;2023-03-14T00:45:36;10.82;;;1.98;;
18520;SDS011;9390;51.244;6.982;2023-03-14T00:48:09;10.23;;;2.38;;
18520;SDS011;9390;51.244;6.982;2023-03-14T00:50:41;10.60;;;2.63;;
18520;SDS011;9390;51.244;6.982;2023-03-14T00:53:12;10.68;;;2.05;;
18520;SDS011;9390;51.244;6.982;2023-03-14T00:55:44;7.63;;;1.90;;
18520;SDS011;9390;51.244;6.982;2023-03-14T00:58:16;8.02;;;2.25;;
18520;SDS011;9390;51.244;6.982;2023-03-14T01:00:48;6.72;;;2.13;;
18520;SDS011;9390;51.244;6.982;2023-03-14T01:03:21;8.20;;;2.15;;
18520;SDS011;9390;51.244;6.982;2023-03-14T01:05:54;10.00;;;1.88;;
18520;SDS011;9390;51.244;6.982;2023-03-14T01:08:25;8.50;;;1.90;;
18520;SDS011;9390;51.244;6.982;2023-03-14T01:10:56;10.80;;;2.05;;
18520;SDS011;9390;51.244;6.982;2023-03-14T01:13:28;10.55;;;1.88;;
18520;SDS011;9390;51.244;6.982;2023-03-14T01:16:00;10.13;;;1.77;;
18520;SDS011;9390;51.244;6.982;2023-03-14T01:18:34;8.52;;;1.67;;
18520;SDS011;9390;51.244;6.982;2023-03-14T01:21:09;4.80;;;1.60;;
18520;SDS011;9390;51.244;6.982;2023-03-14T01:23:42;8.70;;;1.52;;
18520;SDS011;9390;51.244;6.982;2023-03-14T01:26:15;6.82;;;1.40;;
18520;SDS011;9390;51.244;6.982;2023-03-14T01:28:49;10.73;;;1.50;;
18520;SDS011;9390;51.244;6.982;2023-03-14T01:31:22;5.68;;;1.38;;
18520;SDS011;9390;51.244;6.982;2023-03-14T01:33:54;10.52;;;1.63;;
18520;SDS011;9390;51.244;6.982;2023-03-14T01:36:26;6.30;;;1.20;;
18520;SDS011;9390;51.244;6.982;2023-03-14T01:38:58;8.95;;;1.50;;
18520;SDS011;9390;51.244;6.982;2023-03-14T01:41:29;9.55;;;1.33;;
18520;SDS011;9390;51.244;6.982;2023-03-14T01:44:00;10.95;;;2.00;;
18520;SDS011;9390;51.244;6.982;2023-03-14T01:46:34;10.57;;;1.65;;
18520;SDS011;9390;51.244;6.982;2023-03-14T01:49:12;11.10;;;1.52;;
18520;SDS011;9390;51.244;6.982;2023-03-14T01:51:47;7.10;;;1.45;;
18520;SDS011;9390;51.244;6.982;2023-03-14T01:54:22;8.43;;;1.48;;
18520;SDS011;9390;51.244;6.982;2023-03-14T01:56:57;9.43;;;1.60;;
18520;SDS011;9390;51.244;6.982;2023-03-14T01:59:35;8.15;;;2.03;;
18520;SDS011;9390;51.244;6.982;2023-03-14T02:02:09;15.82;;;2.08;;
18520;SDS011;9390;51.244;6.982;2023-03-14T02:04:43;9.90;;;2.10;;
18520;SDS011;9390;51.244;6.982;2023-03-14T02:07:15;9.25;;;1.70;;
18520;SDS011;9390;51.244;6.982;2023-03-14T02:09:48;11.40;;;1.85;;
18520;SDS011;9390;51.244;6.982;2023-03-14T02:12:20;6.75;;;1.73;;
18520;SDS011;9390;51.244;6.982;2023-03-14T02:14:51;9.65;;;1.67;;
18520;SDS011;9390;51.244;6.982;2023-03-14T02:17:23;13.13;;;1.92;;
18520;SDS011;9390;51.244;6.982;2023-03-14T02:20:01;10.15;;;1.58;;
18520;SDS011;9390;51.244;6.982;2023-03-14T02:22:40;10.45;;;2.10;;
18520;SDS011;9390;51.244;6.982;2023-03-14T02:25:14;15.73;;;2.28;;
18520;SDS011;9390;51.244;6.982;2023-03-14T02:27:49;12.32;;;1.83;;
18520;SDS011;9390;51.244;6.982;2023-03-14T02:30:21;14.75;;;2.42;;
18520;SDS011;9390;51.244;6.982;2023-03-14T02:35:27;13.73;;;2.33;;
18520;SDS011;9390;51.244;6.982;2023-03-14T02:38:03;11.48;;;3.13;;
18520;SDS011;9390;51.244;6.982;2023-03-14T02:40:39;8.70;;;1.90;;
18520;SDS011;9390;51.244;6.982;2023-03-14T02:43:12;8.55;;;1.90;;
18520;SDS011;9390;51.244;6.982;2023-03-14T02:45:44;12.27;;;1.60;;
18520;SDS011;9390;51.244;6.982;2023-03-14T02:48:17;11.15;;;1.70;;
18520;SDS011;9390;51.244;6.982;2023-03-14T02:50:51;14.85;;;2.13;;
18520;SDS011;9390;51.244;6.982;2023-03-14T02:53:25;10.13;;;1.85;;
18520;SDS011;9390;51.244;6.982;2023-03-14T02:55:59;8.23;;;2.17;;
18520;SDS011;9390;51.244;6.982;2023-03-14T02:58:32;6.20;;;1.85;;
18520;SDS011;9390;51.244;6.982;2023-03-14T03:01:04;12.13;;;2.22;;
18520;SDS011;9390;51.244;6.982;2023-03-14T03:03:36;7.90;;;1.67;;
18520;SDS011;9390;51.244;6.982;2023-03-14T03:06:07;8.68;;;1.90;;
18520;SDS011;9390;51.244;6.982;2023-03-14T03:08:39;15.85;;;1.92;;
18520;SDS011;9390;51.244;6.982;2023-03-14T03:11:10;9.40;;;1.70;;
18520;SDS011;9390;51.244;6.982;2023-03-14T03:13:43;11.38;;;1.85;;
18520;SDS011;9390;51.244;6.982;2023-03-14T03:16:14;15.63;;;2.25;;
18520;SDS011;9390;51.244;6.982;2023-03-14T03:18:46;9.95;;;2.03;;
18520;SDS011;9390;51.244;6.982;2023-03-14T03:21:17;10.25;;;1.95;;
18520;SDS011;9390;51.244;6.982;2023-03-14T03:23:49;8.50;;;1.67;;
18520;SDS011;9390;51.244;6.982;2023-03-14T03:26:20;10.93;;;1.70;;
18520;SDS011;9390;51.244;6.982;2023-03-14T03:28:53;6.68;;;1.42;;
18520;SDS011;9390;51.244;6.982;2023-03-14T03:31:24;12.55;;;2.10;;
18520;SDS011;9390;51.244;6.982;2023-03-14T03:33:56;12.85;;;2.20;;
18520;SDS011;9390;51.244;6.982;2023-03-14T03:36:27;12.90;;;1.90;;
18520;SDS011;9390;51.244;6.982;2023-03-14T03:38:59;11.52;;;1.95;;
18520;SDS011;9390;51.244;6.982;2023-03-14T03:41:31;10.35;;;1.88;;
18520;SDS011;9390;51.244;6.982;2023-03-14T03:44:04;10.52;;;2.25;;
18520;SDS011;9390;51.244;6.982;2023-03-14T03:49:07;10.40;;;1.98;;
18520;SDS011;9390;51.244;6.982;2023-03-14T03:51:39;15.98;;;2.10;;
18520;SDS011;9390;51.244;6.982;2023-03-14T03:54:10;11.05;;;1.95;;
18520;SDS011;9390;51.244;6.982;2023-03-14T03:56:42;14.88;;;2.50;;
18520;SDS011;9390;51.244;6.982;2023-03-14T03:59:14;14.40;;;2.25;;
18520;SDS011;9390;51.244;6.982;2023-03-14T04:01:46;12.07;;;1.98;;
18520;SDS011;9390;51.244;6.982;2023-03-14T04:04:17;14.77;;;2.10;;
18520;SDS011;9390;51.244;6.982;2023-03-14T04:06:49;15.45;;;2.70;;
18520;SDS011;9390;51.244;6.982;2023-03-14T04:09:20;16.25;;;2.25;;
18520;SDS011;9390;51.244;6.982;2023-03-14T04:11:52;16.23;;;2.20;;
18520;SDS011;9390;51.244;6.982;2023-03-14T04:14:24;13.75;;;2.17;;
18520;SDS011;9390;51.244;6.982;2023-03-14T04:16:56;13.68;;;2.60;;
18520;SDS011;9390;51.244;6.982;2023-03-14T04:19:27;12.27;;;2.78;;
18520;SDS011;9390;51.244;6.982;2023-03-14T04:21:58;9.35;;;2.85;;
18520;SDS011;9390;51.244;6.982;2023-03-14T04:24:30;15.10;;;2.35;;
18520;SDS011;9390;51.244;6.982;2023-03-14T04:27:01;11.48;;;2.90;;
18520;SDS011;9390;51.244;6.982;2023-03-14T04:29:34;16.80;;;2.78;;
18520;SDS011;9390;51.244;6.982;2023-03-14T04:32:06;9.95;;;2.70;;
18520;SDS011;9390;51.244;6.982;2023-03-14T04:34:37;17.67;;;3.13;;
18520;SDS011;9390;51.244;6.982;2023-03-14T04:37:08;14.48;;;2.95;;
18520;SDS011;9390;51.244;6.982;2023-03-14T04:39:40;21.60;;;4.38;;
18520;SDS011;9390;51.244;6.982;2023-03-14T04:42:12;10.88;;;3.95;;
18520;SDS011;9390;51.244;6.982;2023-03-14T04:44:44;16.92;;;4.18;;
18520;SDS011;9390;51.244;6.982;2023-03-14T04:47:16;16.02;;;3.97;;
18520;SDS011;9390;51.244;6.982;2023-03-14T04:49:48;18.42;;;3.72;;
18520;SDS011;9390;51.244;6.982;2023-03-14T04:52:19;18.02;;;3.67;;
18520;SDS011;9390;51.244;6.982;2023-03-14T04:54:51;16.20;;;3.65;;
18520;SDS011;9390;51.244;6.982;2023-03-14T04:57:22;19.58;;;3.80;;
18520;SDS011;9390;51.244;6.982;2023-03-14T04:59:55;15.40;;;3.58;;
18520;SDS011;9390;51.244;6.982;2023-03-14T05:02:26;23.73;;;3.60;;
18520;SDS011;9390;51.244;6.982;2023-03-14T05:04:57;16.77;;;3.30;;
18520;SDS011;9390;51.244;6.982;2023-03-14T05:07:29;17.08;;;2.97;;
18520;SDS011;9390;51.244;6.982;2023-03-14T05:10:00;21.17;;;3.25;;
18520;SDS011;9390;51.244;6.982;2023-03-14T05:12:31;14.07;;;3.13;;
18520;SDS011;9390;51.244;6.982;2023-03-14T05:15:05;15.90;;;3.22;;
18520;SDS011;9390;51.244;6.982;2023-03-14T05:17:37;14.23;;;2.50;;
18520;SDS011;9390;51.244;6.982;2023-03-14T05:20:09;17.38;;;3.00;;
18520;SDS011;9390;51.244;6.982;2023-03-14T05:22:42;13.45;;;2.38;;
18520;SDS011;9390;51.244;6.982;2023-03-14T05:25:14;14.80;;;2.28;;
18520;SDS011;9390;51.244;6.982;2023-03-14T05:27:45;17.23;;;2.65;;
18520;SDS011;9390;51.244;6.982;2023-03-14T05:30:18;11.57;;;2.33;;
18520;SDS011;9390;51.244;6.982;2023-03-14T05:32:49;11.27;;;2.10;;
18520;SDS011;9390;51.244;6.982;2023-03-14T05:35:21;8.77;;;2.30;;
18520;SDS011;9390;51.244;6.982;2023-03-14T05:37:52;11.75;;;2.15;;
18520;SDS011;9390;51.244;6.982;2023-03-14T05:40:24;10.32;;;1.60;;
18520;SDS011;9390;51.244;6.982;2023-03-14T05:42:55;7.63;;;1.80;;
18520;SDS011;9390;51.244;6.982;2023-03-14T05:45:28;12.20;;;1.80;;
18520;SDS011;9390;51.244;6.982;2023-03-14T05:47:59;5.88;;;1.50;;
18520;SDS011;9390;51.244;6.982;2023-03-14T05:50:30;14.55;;;1.80;;
18520;SDS011;9390;51.244;6.982;2023-03-14T05:53:02;9.68;;;1.70;;
18520;SDS011;9390;51.244;6.982;2023-03-14T05:55:33;12.10;;;1.60;;
18520;SDS011;9390;51.244;6.982;2023-03-14T05:58:05;5.63;;;1.50;;
18520;SDS011;9390;51.244;6.982;2023-03-14T06:00:38;9.27;;;1.73;;
18520;SDS011;9390;51.244;6.982;2023-03-14T06:03:09;7.32;;;1.63;;
18520;SDS011;9390;51.244;6.982;2023-03-14T06:05:40;6.85;;;1.27;;
18520;SDS011;9390;51.244;6.982;2023-03-14T06:08:12;10.75;;;1.52;;
18520;SDS011;9390;51.244;6.982;2023-03-14T06:10:43;7.60;;;1.75;;
18520;SDS011;9390;51.244;6.982;2023-03-14T06:13:14;6.05;;;1.70;;
18520;SDS011;9390;51.244;6.982;2023-03-14T06:15:47;5.38;;;1.60;;
18520;SDS011;9390;51.244;6.982;2023-03-14T06:18:19;5.07;;;1.52;;
18520;SDS011;9390;51.244;6.982;2023-03-14T06:20:53;8.50;;;1.73;;
18520;SDS011;9390;51.244;6.982;2023-03-14T06:23:24;8.27;;;1.70;;
18520;SDS011;9390;51.244;6.982;2023-03-14T06:25:56;4.07;;;1.38;;
18520;SDS011;9390;51.244;6.982;2023-03-14T06:28:27;4.55;;;1.25;;
18520;SDS011;9390;51.244;6.982;2023-03-14T06:31:00;3.95;;;1.17;;
18520;SDS011;9390;51.244;6.982;2023-03-14T06:33:32;2.97;;;1.27;;
18520;SDS011;9390;51.244;6.982;2023-03-14T06:36:03;3.47;;;1.33;;
18520;SDS011;9390;51.244;6.982;2023-03-14T06:38:35;4.22;;;1.55;;
18520;SDS011;9390;51.244;6.982;2023-03-14T06:41:07;8.25;;;1.30;;
18520;SDS011;9390;51.244;6.982;2023-03-14T06:43:38;2.00;;;0.90;;
18520;SDS011;9390;51.244;6.982;2023-03-14T06:46:11;2.03;;;0.93;;
18520;SDS011;9390;51.244;6.982;2023-03-14T06:48:43;2.75;;;0.98;;
18520;SDS011;9390;51.244;6.982;2023-03-14T06:51:14;2.47;;;1.00;;
18520;SDS011;9390;51.244;6.982;2023-03-14T06:53:45;2.95;;;1.00;;
18520;SDS011;9390;51.244;6.982;2023-03-14T06:56:17;3.35;;;1.90;;
18520;SDS011;9390;51.244;6.982;2023-03-14T06:58:48;3.22;;;1.00;;
18520;SDS011;9390;51.244;6.982;2023-03-14T07:01:22;4.70;;;1.13;;
18520;SDS011;9390;51.244;6.982;2023-03-14T07:03:55;2.75;;;1.00;;
18520;SDS011;9390;51.244;6.982;2023-03-14T07:06:27;2.45;;;1.00;;
18520;SDS011;9390;51.244;6.982;2023-03-14T07:08:59;2.08;;;0.88;;
18520;SDS011;9390;51.244;6.982;2023-03-14T07:11:30;1.88;;;1.00;;
18520;SDS011;9390;51.244;6.982;2023-03-14T07:14:02;2.33;;;0.88;;
18520;SDS011;9390;51.244;6.982;2023-03-14T07:16:34;1.75;;;1.02;;
18520;SDS011;9390;51.244;6.982;2023-03-14T07:19:06;3.33;;;1.13;;
18520;SDS011;9390;51.244;6.982;2023-03-14T07:21:37;1.73;;;1.00;;
18520;SDS011;9390;51.244;6.982;2023-03-14T07:24:09;3.53;;;0.90;;
18520;SDS011;9390;51.244;6.982;2023-03-14T07:26:40;2.35;;;1.13;;
18520;SDS011;9390;51.244;6.982;2023-03-14T07:29:11;3.10;;;1.00;;
18520;SDS011;9390;51.244;6.982;2023-03-14T07:31:44;3.65;;;1.00;;
18520;SDS011;9390;51.244;6.982;2023-03-14T07:34:15;3.13;;;0.90;;
18520;SDS011;9390;51.244;6.982;2023-03-14T07:36:47;1.42;;;0.90;;
18520;SDS011;9390;51.244;6.982;2023-03-14T07:39:18;2.22;;;1.00;;
18520;SDS011;9390;51.244;6.982;2023-03-14T07:41:49;2.05;;;1.02;;
18520;SDS011;9390;51.244;6.982;2023-03-14T07:44:21;2.70;;;0.90;;
18520;SDS011;9390;51.244;6.982;2023-03-14T07:46:54;2.65;;;1.10;;
18520;SDS011;9390;51.244;6.982;2023-03-14T07:49:25;2.47;;;1.00;;
18520;SDS011;9390;51.244;6.982;2023-03-14T07:51:57;3.08;;;1.10;;
18520;SDS011;9390;51.244;6.982;2023-03-14T07:54:29;2.88;;;1.20;;
18520;SDS011;9390;51.244;6.982;2023-03-14T07:57:00;2.70;;;1.20;;
18520;SDS011;9390;51.244;6.982;2023-03-14T07:59:31;2.53;;;1.10;;
18520;SDS011;9390;51.244;6.982;2023-03-14T08:02:04;3.88;;;1.15;;
18520;SDS011;9390;51.244;6.982;2023-03-14T08:04:41;1.75;;;0.98;;
18520;SDS011;9390;51.244;6.982;2023-03-14T08:07:12;4.45;;;1.10;;
18520;SDS011;9390;51.244;6.982;2023-03-14T08:09:43;3.08;;;1.30;;
18520;SDS011;9390;51.244;6.982;2023-03-14T08:12:15;3.17;;;1.30;;
18520;SDS011;9390;51.244;6.982;2023-03-14T08:14:46;2.67;;;1.27;;
18520;SDS011;9390;51.244;6.982;2023-03-14T08:17:19;2.55;;;1.15;;
18520;SDS011;9390;51.244;6.982;2023-03-14T08:19:51;3.75;;;1.30;;
18520;SDS011;9390;51.244;6.982;2023-03-14T08:22:22;2.10;;;1.00;;
18520;SDS011;9390;51.244;6.982;2023-03-14T08:24:53;4.57;;;1.10;;
18520;SDS011;9390;51.244;6.982;2023-03-14T08:27:25;2.90;;;1.10;;
18520;SDS011;9390;51.244;6.982;2023-03-14T08:29:56;3.25;;;1.00;;
18520;SDS011;9390;51.244;6.982;2023-03-14T08:32:29;2.60;;;1.17;;
18520;SDS011;9390;51.244;6.982;2023-03-14T08:35:01;2.90;;;1.20;;
18520;SDS011;9390;51.244;6.982;2023-03-14T08:37:32;3.47;;;1.33;;
18520;SDS011;9390;51.244;6.982;2023-03-14T08:40:04;2.78;;;1.10;;
18520;SDS011;9390;51.244;6.982;2023-03-14T08:42:37;3.47;;;1.40;;
18520;SDS011;9390;51.244;6.982;2023-03-14T08:45:10;3.63;;;1.10;;
18520;SDS011;9390;51.244;6.982;2023-03-14T08:47:44;4.35;;;1.30;;
18520;SDS011;9390;51.244;6.982;2023-03-14T08:50:16;2.78;;;1.35;;
18520;SDS011;9390;51.244;6.982;2023-03-14T08:52:47;4.65;;;1.50;;
18520;SDS011;9390;51.244;6.982;2023-03-14T08:55:19;4.93;;;1.70;;
18520;SDS011;9390;51.244;6.982;2023-03-14T08:57:50;3.72;;;1.50;;
18520;SDS011;9390;51.244;6.982;2023-03-14T09:00:22;4.38;;;1.52;;
18520;SDS011;9390;51.244;6.982;2023-03-14T09:02:55;4.07;;;1.45;;
18520;SDS011;9390;51.244;6.982;2023-03-14T09:05:26;5.13;;;1.52;;
18520;SDS011;9390;51.244;6.982;2023-03-14T09:07:58;5.75;;;1.77;;
18520;SDS011;9390;51.244;6.982;2023-03-14T09:10:29;7.13;;;1.90;;
18520;SDS011;9390;51.244;6.982;2023-03-14T09:13:00;3.53;;;1.73;;
18520;SDS011;9390;51.244;6.982;2023-03-14T09:15:32;9.07;;;1.98;;
18520;SDS011;9390;51.244;6.982;2023-03-14T09:18:05;5.30;;;1.88;;
18520;SDS011;9390;51.244;6.982;2023-03-14T09:20:36;5.03;;;2.10;;
18520;SDS011;9390;51.244;6.982;2023-03-14T09:23:07;5.50;;;1.80;;
18520;SDS011;9390;51.244;6.982;2023-03-14T09:25:39;6.85;;;2.17;;
18520;SDS011;9390;51.244;6.982;2023-03-14T09:28:10;4.32;;;1.92;;
18520;SDS011;9390;51.244;6.982;2023-03-14T09:30:42;6.10;;;1.80;;
18520;SDS011;9390;51.244;6.982;2023-03-14T09:33:14;6.10;;;1.88;;
18520;SDS011;9390;51.244;6.982;2023-03-14T09:35:46;3.63;;;1.10;;
18520;SDS011;9390;51.244;6.982;2023-03-14T09:38:17;2.90;;;1.10;;
18520;SDS011;9390;51.244;6.982;2023-03-14T09:40:50;5.07;;;1.13;;
18520;SDS011;9390;51.244;6.982;2023-03-14T09:43:22;4.18;;;1.20;;
18520;SDS011;9390;51.244;6.982;2023-03-14T09:45:54;2.88;;;1.42;;
18520;SDS011;9390;51.244;6.982;2023-03-14T09:48:29;4.93;;;1.20;;
18520;SDS011;9390;51.244;6.982;2023-03-14T09:51:03;2.25;;;1.05;;
18520;SDS011;9390;51.244;6.982;2023-03-14T09:53:38;4.30;;;1.40;;
18520;SDS011;9390;51.244;6.982;2023-03-14T09:56:13;3.15;;;1.30;;
18520;SDS011;9390;51.244;6.982;2023-03-14T09:58:48;4.35;;;1.52;;
18520;SDS011;9390;51.244;6.982;2023-03-14T10:01:22;5.85;;;2.38;;
18520;SDS011;9390;51.244;6.982;2023-03-14T10:03:58;7.18;;;1.85;;
18520;SDS011;9390;51.244;6.982;2023-03-14T10:06:32;7.45;;;2.40;;
18520;SDS011;9390;51.244;6.982;2023-03-14T10:09:04;5.95;;;2.00;;
18520;SDS011;9390;51.244;6.982;2023-03-14T10:11:36;4.47;;;2.00;;
18520;SDS011;9390;51.244;6.982;2023-03-14T10:14:10;5.65;;;2.20;;
18520;SDS011;9390;51.244;6.982;2023-03-14T10:16:43;7.68;;;2.40;;
18520;SDS011;9390;51.244;6.982;2023-03-14T10:19:17;10.10;;;2.78;;
18520;SDS011;9390;51.244;6.982;2023-03-14T10:21:50;9.18;;;2.80;;
18520;SDS011;9390;51.244;6.982;2023-03-14T10:24:26;6.97;;;2.70;;
18520;SDS011;9390;51.244;6.982;2023-03-14T10:26:58;9.88;;;3.50;;
18520;SDS011;9390;51.244;6.982;2023-03-14T10:29:33;8.32;;;3.47;;
18520;SDS011;9390;51.244;6.982;2023-03-14T10:32:06;7.30;;;2.80;;
18520;SDS011;9390;51.244;6.982;2023-03-14T10:34:43;10.38;;;4.03;;
18520;SDS011;9390;51.244;6.982;2023-03-14T10:37:16;7.43;;;3.00;;
18520;SDS011;9390;51.244;6.982;2023-03-14T10:39:52;9.30;;;3.20;;
18520;SDS011;9390;51.244;6.982;2023-03-14T10:42:25;7.35;;;3.35;;
18520;SDS011;9390;51.244;6.982;2023-03-14T10:45:00;10.30;;;3.65;;
18520;SDS011;9390;51.244;6.982;2023-03-14T10:47:32;9.48;;;2.97;;
18520;SDS011;9390;51.244;6.982;2023-03-14T10:50:21;7.40;;;3.15;;
18520;SDS011;9390;51.244;6.982;2023-03-14T10:52:55;7.78;;;3.35;;
18520;SDS011;9390;51.244;6.982;2023-03-14T10:55:26;14.20;;;3.40;;
18520;SDS011;9390;51.244;6.982;2023-03-14T10:57:58;9.80;;;4.15;;
18520;SDS011;9390;51.244;6.982;2023-03-14T11:00:29;12.20;;;4.78;;
18520;SDS011;9390;51.244;6.982;2023-03-14T11:03:04;10.00;;;5.22;;
18520;SDS011;9390;51.244;6.982;2023-03-14T11:05:42;10.57;;;4.85;;
18520;SDS011;9390;51.244;6.982;2023-03-14T11:08:18;11.20;;;4.40;;
18520;SDS011;9390;51.244;6.982;2023-03-14T11:10:53;11.30;;;4.40;;
18520;SDS011;9390;51.244;6.982;2023-03-14T11:13:26;11.85;;;5.03;;
18520;SDS011;9390;51.244;6.982;2023-03-14T11:16:01;10.40;;;5.13;;
18520;SDS011;9390;51.244;6.982;2023-03-14T11:18:46;8.90;;;3.60;;
18520;SDS011;9390;51.244;6.982;2023-03-14T11:21:24;7.00;;;3.35;;
18520;SDS011;9390;51.244;6.982;2023-03-14T11:24:03;10.90;;;3.38;;
18520;SDS011;9390;51.244;6.982;2023-03-14T11:26:48;7.72;;;3.63;;
18520;SDS011;9390;51.244;6.982;2023-03-14T11:29:23;12.15;;;4.00;;
18520;SDS011;9390;51.244;6.982;2023-03-14T11:32:00;8.13;;;2.92;;
18520;SDS011;9390;51.244;6.982;2023-03-14T11:34:35;6.38;;;2.60;;
18520;SDS011;9390;51.244;6.982;2023-03-14T11:37:14;8.05;;;2.35;;
18520;SDS011;9390;51.244;6.982;2023-03-14T11:39:47;6.78;;;2.72;;
18520;SDS011;9390;51.244;6.982;2023-03-14T11:42:25;11.95;;;3.28;;
18520;SDS011;9390;51.244;6.982;2023-03-14T11:44:57;11.50;;;4.40;;
18520;SDS011;9390;51.244;6.982;2023-03-14T11:47:30;10.10;;;4.20;;
18520;SDS011;9390;51.244;6.982;2023-03-14T11:50:04;11.15;;;4.55;;
18520;SDS011;9390;51.244;6.982;2023-03-14T11:52:41;7.93;;;3.90;;
18520;SDS011;9390;51.244;6.982;2023-03-14T11:55:17;6.55;;;2.47;;
18520;SDS011;9390;51.244;6.982;2023-03-14T11:57:50;7.13;;;2.97;;
18520;SDS011;9390;51.244;6.982;2023-03-14T12:00:23;6.70;;;2.30;;
18520;SDS011;9390;51.244;6.982;2023-03-14T12:02:56;7.25;;;2.00;;
18520;SDS011;9390;51.244;6.982;2023-03-14T12:05:43;5.47;;;2.30;;
18520;SDS011;9390;51.244;6.982;2023-03-14T12:08:21;8.52;;;2.20;;
18520;SDS011;9390;51.244;6.982;2023-03-14T12:11:01;7.07;;;2.38;;
18520;SDS011;9390;51.244;6.982;2023-03-14T12:13:36;8.30;;;1.80;;
18520;SDS011;9390;51.244;6.982;2023-03-14T12:16:18;6.35;;;2.33;;
18520;SDS011;9390;51.244;6.982;2023-03-14T12:18:56;8.77;;;3.85;;
18520;SDS011;9390;51.244;6.982;2023-03-14T12:21:42;7.03;;;3.40;;
18520;SDS011;9390;51.244;6.982;2023-03-14T12:24:19;7.72;;;3.50;;
18520;SDS011;9390;51.244;6.982;2023-03-14T12:26:53;8.93;;;3.80;;
18520;SDS011;9390;51.244;6.982;2023-03-14T12:29:25;12.95;;;3.90;;
18520;SDS011;9390;51.244;6.982;2023-03-14T12:32:07;6.38;;;2.83;;
18520;SDS011;9390;51.244;6.982;2023-03-14T12:34:40;7.45;;;1.92;;
18520;SDS011;9390;51.244;6.982;2023-03-14T12:37:14;7.40;;;2.17;;
18520;SDS011;9390;51.244;6.982;2023-03-14T12:39:53;8.15;;;1.73;;
18520;SDS011;9390;51.244;6.982;2023-03-14T12:42:37;7.05;;;1.65;;
18520;SDS011;9390;51.244;6.982;2023-03-14T12:45:22;6.43;;;2.08;;
18520;SDS011;9390;51.244;6.982;2023-03-14T12:48:08;6.72;;;2.20;;
18520;SDS011;9390;51.244;6.982;2023-03-14T12:50:42;8.80;;;2.13;;
18520;SDS011;9390;51.244;6.982;2023-03-14T12:53:27;7.22;;;2.10;;
18520;SDS011;9390;51.244;6.982;2023-03-14T12:56:35;12.30;;;1.95;;
18520;SDS011;9390;51.244;6.982;2023-03-14T13:02:00;10.15;;;2.42;;
18520;SDS011;9390;51.244;6.982;2023-03-14T13:04:35;9.20;;;2.05;;
18520;SDS011;9390;51.244;6.982;2023-03-14T13:07:38;13.17;;;5.10;;
18520;SDS011;9390;51.244;6.982;2023-03-14T13:10:42;14.15;;;3.42;;
18520;SDS011;9390;51.244;6.982;2023-03-14T13:13:21;12.45;;;3.50;;
18520;SDS011;9390;51.244;6.982;2023-03-14T13:15:56;12.25;;;3.72;;
18520;SDS011;9390;51.244;6.982;2023-03-14T13:18:32;16.00;;;3.45;;
18520;SDS011;9390;51.244;6.982;2023-03-14T13:21:07;13.88;;;2.65;;
18520;SDS011;9390;51.244;6.982;2023-03-14T13:23:54;15.35;;;2.58;;
18520;SDS011;9390;51.244;6.982;2023-03-14T13:26:32;9.40;;;2.53;;
18520;SDS011;9390;51.244;6.982;2023-03-14T13:29:10;13.80;;;1.90;;
18520;SDS011;9390;51.244;6.982;2023-03-14T13:34:24;20.35;;;2.50;;
18520;SDS011;9390;51.244;6.982;2023-03-14T13:36:56;11.55;;;2.28;;
18520;SDS011;9390;51.244;6.982;2023-03-14T13:39:28;17.83;;;2.60;;
18520;SDS011;9390;51.244;6.982;2023-03-14T13:42:01;11.93;;;2.83;;
18520;SDS011;9390;51.244;6.982;2023-03-14T13:44:35;42.33;;;4.55;;
18520;SDS011;9390;51.244;6.982;2023-03-14T13:47:10;13.43;;;2.40;;
18520;SDS011;9390;51.244;6.982;2023-03-14T13:49:44;13.35;;;2.85;;
18520;SDS011;9390;51.244;6.982;2023-03-14T13:55:13;14.07;;;3.50;;
18520;SDS011;9390;51.244;6.982;2023-03-14T13:57:46;15.00;;;2.75;;
18520;SDS011;9390;51.244;6.982;2023-03-14T14:00:21;22.98;;;4.35;;
18520;SDS011;9390;51.244;6.982;2023-03-14T14:02:57;21.65;;;3.80;;
18520;SDS011;9390;51.244;6.982;2023-03-14T14:08:02;22.50;;;3.05;;
18520;SDS011;9390;51.244;6.982;2023-03-14T14:10:35;21.10;;;3.28;;
18520;SDS011;9390;51.244;6.982;2023-03-14T14:13:08;15.85;;;2.95;;
18520;SDS011;9390;51.244;6.982;2023-03-14T14:15:44;22.48;;;3.10;;
18520;SDS011;9390;51.244;6.982;2023-03-14T14:18:18;16.45;;;3.55;;
18520;SDS011;9390;51.244;6.982;2023-03-14T14:20:51;17.05;;;3.22;;
18520;SDS011;9390;51.244;6.982;2023-03-14T14:23:24;23.95;;;4.43;;
18520;SDS011;9390;51.244;6.982;2023-03-14T14:25:58;16.77;;;2.60;;
18520;SDS011;9390;51.244;6.982;2023-03-14T14:28:31;20.17;;;3.00;;
18520;SDS011;9390;51.244;6.982;2023-03-14T14:33:53;16.70;;;2.67;;
18520;SDS011;9390;51.244;6.982;2023-03-14T14:36:26;22.55;;;3.38;;
18520;SDS011;9390;51.244;6.982;2023-03-14T14:39:00;21.35;;;3.17;;
18520;SDS011;9390;51.244;6.982;2023-03-14T14:41:35;19.88;;;3.10;;
18520;SDS011;9390;51.244;6.982;2023-03-14T14:44:11;15.68;;;3.00;;
18520;SDS011;9390;51.244;6.982;2023-03-14T14:46:44;15.77;;;3.83;;
18520;SDS011;9390;51.244;6.982;2023-03-14T14:49:17;18.85;;;3.33;;
18520;SDS011;9390;51.244;6.982;2023-03-14T14:51:50;23.63;;;3.80;;
18520;SDS011;9390;51.244;6.982;2023-03-14T14:54:32;14.57;;;2.97;;
18520;SDS011;9390;51.244;6.982;2023-03-14T14:57:06;16.83;;;3.58;;
18520;SDS011;9390;51.244;6.982;2023-03-14T14:59:49;18.20;;;2.90;;
18520;SDS011;9390;51.244;6.982;2023-03-14T15:02:32;13.55;;;2.15;;
18520;SDS011;9390;51.244;6.982;2023-03-14T15:05:11;9.27;;;2.00;;
18520;SDS011;9390;51.244;6.982;2023-03-14T15:07:44;10.75;;;1.90;;
18520;SDS011;9390;51.244;6.982;2023-03-14T15:10:16;11.90;;;2.30;;
18520;SDS011;9390;51.244;6.982;2023-03-14T15:12:49;12.75;;;2.53;;
18520;SDS011;9390;51.244;6.982;2023-03-14T15:15:20;10.73;;;1.90;;
18520;SDS011;9390;51.244;6.982;2023-03-14T15:17:53;7.40;;;2.15;;
18520;SDS011;9390;51.244;6.982;2023-03-14T15:20:25;13.85;;;2.05;;
18520;SDS011;9390;51.244;6.982;2023-03-14T15:22:56;14.95;;;2.40;;
18520;SDS011;9390;51.244;6.982;2023-03-14T15:25:27;9.38;;;1.90;;
18520;SDS011;9390;51.244;6.982;2023-03-14T15:27:59;12.13;;;2.35;;
18520;SDS011;9390;51.244;6.982;2023-03-14T15:30:30;11.57;;;2.35;;
18520;SDS011;9390;51.244;6.982;2023-03-14T15:33:03;9.05;;;1.67;;
18520;SDS011;9390;51.244;6.982;2023-03-14T15:35:34;7.35;;;1.50;;
18520;SDS011;9390;51.244;6.982;2023-03-14T15:38:08;8.32;;;1.58;;
18520;SDS011;9390;51.244;6.982;2023-03-14T15:40:43;8.68;;;1.92;;
18520;SDS011;9390;51.244;6.982;2023-03-14T15:43:14;7.47;;;1.70;;
18520;SDS011;9390;51.244;6.982;2023-03-14T15:45:46;9.77;;;2.00;;
18520;SDS011;9390;51.244;6.982;2023-03-14T15:48:19;14.45;;;2.60;;
18520;SDS011;9390;51.244;6.982;2023-03-14T15:50:52;12.02;;;2.40;;
18520;SDS011;9390;51.244;6.982;2023-03-14T15:53:23;13.63;;;2.95;;